createdAt,value
2023-06-04T08:01:09.238Z,0.50
2023-06-04T08:02:09.119Z,0.50
2023-06-04T08:03:09.244Z,0.50
2023-06-04T08:04:09.414Z,0.50
2023-06-04T08:05:09.330Z,0.50
2023-06-04T08:06:09.261Z,0.50
2023-06-04T08:07:09.253Z,0.34
2023-06-04T08:08:09.308Z,0.34
2023-06-04T08:09:09.339Z,0.34
2023-06-04T08:10:09.364Z,0.34
2023-06-04T08:11:09.542Z,0.34
2023-06-04T08:12:10.792Z,0.34
2023-06-04T08:13:09.478Z,0.34
2023-06-04T08:14:09.530Z,0.34
2023-06-04T08:15:09.584Z,0.34
2023-06-04T08:16:09.653Z,0.34
2023-06-04T08:17:09.630Z,0.34
2023-06-04T08:18:09.741Z,0.34
2023-06-04T08:19:09.733Z,0.34
2023-06-04T08:20:09.791Z,0.34
2023-06-04T08:21:09.788Z,0.34
2023-06-04T08:22:09.775Z,0.34
2023-06-04T08:23:09.834Z,0.34
2023-06-04T08:24:09.866Z,0.34
2023-06-04T08:25:09.869Z,0.34
2023-06-04T08:26:09.876Z,0.34
2023-06-04T08:27:09.924Z,0.34
2023-06-04T08:28:09.928Z,0.39
2023-06-04T08:29:09.945Z,0.44
2023-06-04T08:30:09.972Z,0.50
2023-06-04T08:31:10.084Z,0.50
2023-06-04T08:32:10.034Z,0.50
2023-06-04T08:33:11.996Z,0.50
2023-06-04T08:34:10.023Z,0.50
2023-06-04T08:35:10.093Z,0.50
2023-06-04T08:36:10.089Z,0.50
2023-06-04T08:37:10.109Z,0.50
2023-06-04T08:38:10.486Z,0.51
2023-06-04T08:39:10.343Z,0.50
2023-06-04T08:40:10.401Z,0.50
2023-06-04T08:41:10.368Z,0.50
2023-06-04T08:42:10.276Z,0.51
2023-06-04T08:43:10.293Z,0.50
2023-06-04T08:44:10.257Z,0.51
2023-06-04T08:45:10.285Z,0.50
2023-06-04T08:46:10.351Z,0.50
2023-06-04T08:47:10.368Z,0.51
2023-06-04T08:48:10.368Z,0.52
2023-06-04T08:49:10.372Z,0.51
2023-06-04T08:50:10.435Z,0.51
2023-06-04T08:51:10.437Z,0.51
2023-06-04T08:52:10.461Z,0.52
2023-06-04T08:53:10.502Z,0.50
2023-06-04T08:54:10.525Z,0.50
2023-06-04T08:55:10.487Z,0.51
2023-06-04T08:56:10.513Z,0.50
2023-06-04T08:57:10.556Z,0.51
2023-06-04T08:58:10.521Z,0.50
2023-06-04T08:59:10.598Z,0.51
2023-06-04T09:00:10.652Z,0.51
2023-06-04T09:01:10.922Z,0.51
2023-06-04T09:02:10.644Z,0.51
2023-06-04T09:03:10.797Z,0.51
2023-06-04T09:04:13.224Z,0.51
2023-06-04T09:05:10.696Z,0.51
2023-06-04T09:06:10.652Z,0.50
2023-06-04T09:07:10.665Z,0.51
2023-06-04T09:08:10.648Z,0.49
2023-06-04T09:09:10.834Z,0.51
2023-06-04T09:10:12.715Z,0.51
2023-06-04T09:11:10.629Z,0.51
2023-06-04T09:12:10.792Z,0.51
2023-06-04T09:13:10.690Z,0.50
2023-06-04T09:14:10.660Z,0.50
2023-06-04T09:15:10.621Z,0.49
2023-06-04T09:16:10.616Z,0.51
2023-06-04T09:17:10.562Z,0.51
2023-06-04T09:18:10.886Z,0.50
2023-06-04T09:19:10.613Z,0.51
2023-06-04T09:20:10.602Z,0.51
2023-06-04T09:21:10.617Z,0.50
2023-06-04T09:22:10.550Z,0.50
2023-06-04T09:23:10.572Z,0.51
2023-06-04T09:24:10.527Z,0.52
2023-06-04T09:25:10.537Z,0.51
2023-06-04T09:26:10.526Z,0.52
2023-06-04T09:27:10.565Z,0.51
2023-06-04T09:28:10.553Z,0.51
2023-06-04T09:29:10.530Z,0.50
2023-06-04T09:30:10.717Z,0.51
2023-06-04T09:31:10.653Z,0.51
2023-06-04T09:32:10.529Z,0.50
2023-06-04T09:33:10.697Z,0.52
2023-06-04T09:34:10.524Z,0.52
2023-06-04T09:35:10.466Z,0.50
2023-06-04T09:36:10.522Z,0.51
2023-06-04T09:37:10.487Z,0.51
2023-06-04T09:38:10.489Z,0.52
2023-06-04T09:39:10.420Z,0.51
2023-06-04T09:40:10.484Z,0.52
2023-06-04T09:41:10.446Z,0.50
2023-06-04T09:42:10.406Z,0.51
2023-06-04T09:43:10.392Z,0.51
2023-06-04T09:44:10.396Z,0.51
2023-06-04T09:45:10.363Z,0.52
2023-06-04T09:46:10.440Z,0.51
2023-06-04T09:47:10.398Z,0.51
2023-06-04T09:48:10.630Z,0.51
2023-06-04T09:49:10.394Z,0.52
2023-06-04T09:50:10.409Z,0.51
2023-06-04T09:51:10.392Z,0.52
2023-06-04T09:52:10.386Z,0.52
2023-06-04T09:53:10.354Z,0.51
2023-06-04T09:54:10.425Z,0.51
2023-06-04T09:55:10.306Z,0.52
2023-06-04T09:56:10.332Z,0.51
2023-06-04T09:57:11.297Z,0.50
2023-06-04T09:58:10.308Z,0.53
2023-06-04T09:59:10.349Z,0.54
2023-06-04T10:00:10.303Z,0.52
2023-06-04T10:01:10.420Z,0.51
2023-06-04T10:02:10.408Z,0.51
2023-06-04T10:03:10.322Z,0.50
2023-06-04T10:04:10.332Z,0.52
2023-06-04T10:05:10.294Z,0.52
2023-06-04T10:06:10.266Z,0.52
2023-06-04T10:07:10.307Z,0.52
2023-06-04T10:08:10.236Z,0.52
2023-06-04T10:09:10.470Z,0.51
2023-06-04T10:10:10.214Z,0.52
2023-06-04T10:11:10.290Z,0.52
2023-06-04T10:12:10.249Z,0.52
2023-06-04T10:13:10.203Z,0.52
2023-06-04T10:14:10.188Z,0.51
2023-06-04T10:15:10.229Z,0.51
2023-06-04T10:16:18.171Z,0.51
2023-06-04T10:17:11.224Z,0.52
2023-06-04T10:18:10.191Z,0.52
2023-06-04T10:19:10.155Z,0.52
2023-06-04T10:20:10.235Z,0.51
2023-06-04T10:21:10.137Z,0.51
2023-06-04T10:22:10.151Z,0.51
2023-06-04T10:23:10.134Z,0.51
2023-06-04T10:24:10.213Z,0.52
2023-06-04T10:25:10.142Z,0.51
2023-06-04T10:26:10.107Z,0.52
2023-06-04T10:27:10.140Z,0.52
2023-06-04T10:28:10.071Z,0.51
2023-06-04T10:29:10.107Z,0.52
2023-06-04T10:30:10.109Z,0.52
2023-06-04T10:31:10.269Z,0.52
2023-06-04T10:32:10.110Z,0.52
2023-06-04T10:33:10.134Z,0.50
2023-06-04T10:34:10.036Z,0.50
2023-06-04T10:35:10.109Z,0.52
2023-06-04T10:36:10.020Z,0.52
2023-06-04T10:37:10.058Z,0.52
2023-06-04T10:38:10.102Z,0.51
2023-06-04T10:39:10.147Z,0.51
2023-06-04T10:40:10.166Z,0.51
2023-06-04T10:41:10.167Z,0.50
2023-06-04T10:42:10.173Z,0.51
2023-06-04T10:43:10.252Z,0.51
2023-06-04T10:44:10.292Z,0.52
2023-06-04T10:45:10.267Z,0.52
2023-06-04T10:46:10.275Z,0.51
2023-06-04T10:47:10.244Z,0.52
2023-06-04T10:48:10.326Z,0.51
2023-06-04T10:49:10.343Z,0.52
2023-06-04T10:50:10.329Z,0.51
2023-06-04T10:51:10.375Z,0.52
2023-06-04T10:52:10.344Z,0.51
2023-06-04T10:53:10.335Z,0.51
2023-06-04T10:54:10.353Z,0.51
2023-06-04T10:55:10.334Z,0.52
2023-06-04T10:56:10.343Z,0.52
2023-06-04T10:57:10.336Z,0.52
2023-06-04T10:58:10.328Z,0.52
2023-06-04T10:59:10.330Z,0.52
2023-06-04T11:00:10.315Z,0.52
2023-06-04T11:01:10.480Z,0.52
2023-06-04T11:02:10.264Z,0.53
2023-06-04T11:03:10.337Z,0.52
2023-06-04T11:04:10.286Z,0.53
2023-06-04T11:05:10.331Z,0.52
2023-06-04T11:06:10.224Z,0.52
2023-06-04T11:07:10.437Z,0.53
2023-06-04T11:08:10.231Z,0.51
2023-06-04T11:09:10.209Z,0.53
2023-06-04T11:10:10.216Z,0.52
2023-06-04T11:11:10.211Z,0.52
2023-06-04T11:12:10.218Z,0.52
2023-06-04T11:13:10.207Z,0.52
2023-06-04T11:14:10.208Z,0.53
2023-06-04T11:15:10.222Z,0.53
2023-06-04T11:16:10.220Z,0.53
2023-06-04T11:17:10.200Z,0.53
2023-06-04T11:18:10.253Z,0.51
2023-06-04T11:19:10.207Z,0.53
2023-06-04T11:20:10.241Z,0.52
2023-06-04T11:21:10.357Z,0.53
2023-06-04T11:22:10.312Z,0.51
2023-06-04T11:23:10.265Z,0.52
2023-06-04T11:24:10.366Z,0.53
2023-06-04T11:25:10.366Z,0.52
2023-06-04T11:26:10.325Z,0.51
2023-06-04T11:27:17.545Z,0.51
2023-06-04T11:28:11.368Z,0.51
2023-06-04T11:29:10.370Z,0.51
2023-06-04T11:30:10.293Z,0.51
2023-06-04T11:31:10.586Z,0.52
2023-06-04T11:32:10.351Z,0.53
2023-06-04T11:33:10.347Z,0.52
2023-06-04T11:34:10.302Z,0.52
2023-06-04T11:35:10.299Z,0.51
2023-06-04T11:36:10.294Z,0.52
2023-06-04T11:37:10.266Z,0.52
2023-06-04T11:38:10.530Z,0.51
2023-06-04T11:39:10.272Z,0.51
2023-06-04T11:40:10.266Z,0.52
2023-06-04T11:41:10.282Z,0.51
2023-06-04T11:42:10.283Z,0.51
2023-06-04T11:43:10.264Z,0.51
2023-06-04T11:44:11.376Z,0.51
2023-06-04T11:45:10.240Z,0.53
2023-06-04T11:46:11.294Z,0.51
2023-06-04T11:47:10.210Z,0.51
2023-06-04T11:48:10.249Z,0.52
2023-06-04T11:49:10.261Z,0.51
2023-06-04T11:50:10.481Z,0.51
2023-06-04T11:51:10.183Z,0.50
2023-06-04T11:52:10.188Z,0.52
2023-06-04T11:53:10.213Z,0.52
2023-06-04T11:54:10.258Z,0.53
2023-06-04T11:55:10.282Z,0.52
2023-06-04T11:56:10.233Z,0.51
2023-06-04T11:57:10.326Z,0.53
2023-06-04T11:58:10.283Z,0.50
2023-06-04T11:59:10.341Z,0.51
2023-06-04T12:00:10.341Z,0.53
2023-06-04T12:01:10.366Z,0.53
2023-06-04T12:02:10.385Z,0.52
2023-06-04T12:03:10.469Z,0.51
2023-06-04T12:04:10.466Z,0.51
2023-06-04T12:05:10.396Z,0.52
2023-06-04T12:06:10.495Z,0.51
2023-06-04T12:07:10.468Z,0.52
2023-06-04T12:08:10.716Z,0.50
2023-06-04T12:09:10.518Z,0.52
2023-06-04T12:10:10.506Z,0.51
2023-06-04T12:11:10.509Z,0.52
2023-06-04T12:12:10.529Z,0.52
2023-06-04T12:13:10.637Z,0.51
2023-06-04T12:14:10.879Z,0.51
2023-06-04T12:15:10.715Z,0.52
2023-06-04T12:16:10.616Z,0.52
2023-06-04T12:17:10.635Z,0.51
2023-06-04T12:18:10.767Z,0.51
2023-06-04T12:19:10.639Z,0.53
2023-06-04T12:20:10.683Z,0.52
2023-06-04T12:21:10.730Z,0.52
2023-06-04T12:22:10.749Z,0.51
2023-06-04T12:23:10.720Z,0.52
2023-06-04T12:24:10.713Z,0.52
2023-06-04T12:25:10.763Z,0.52
2023-06-04T12:26:10.754Z,0.52
2023-06-04T12:27:10.804Z,0.52
2023-06-04T12:28:10.834Z,0.51
2023-06-04T12:29:10.859Z,0.51
2023-06-04T12:30:10.840Z,0.53
2023-06-04T12:31:11.412Z,0.52
2023-06-04T12:32:12.557Z,0.52
2023-06-04T12:33:10.889Z,0.51
2023-06-04T12:34:10.904Z,0.53
2023-06-04T12:35:10.911Z,0.52
2023-06-04T12:36:10.912Z,0.51
2023-06-04T12:37:10.961Z,0.53
2023-06-04T12:38:10.967Z,0.52
2023-06-04T12:39:11.007Z,0.52
2023-06-04T12:40:11.021Z,0.52
2023-06-04T12:41:11.013Z,0.52
2023-06-04T12:42:11.002Z,0.53
2023-06-04T12:43:11.057Z,0.53
2023-06-04T12:44:11.038Z,0.53
2023-06-04T12:45:11.086Z,0.52
2023-06-04T12:46:11.289Z,0.52
2023-06-04T12:47:11.921Z,0.53
2023-06-04T12:48:11.177Z,0.53
2023-06-04T12:49:11.022Z,0.53
2023-06-04T12:50:11.050Z,0.53
2023-06-04T12:51:11.048Z,0.52
2023-06-04T12:52:11.047Z,0.52
2023-06-04T12:53:11.010Z,0.54
2023-06-04T12:54:11.005Z,0.54
2023-06-04T12:55:11.033Z,0.53
2023-06-04T12:56:11.019Z,0.52
2023-06-04T12:57:10.986Z,0.52
2023-06-04T12:58:11.001Z,0.52
2023-06-04T12:59:11.031Z,0.52
2023-06-04T13:00:10.962Z,0.53
